sensor_id;sensor_type;location;lat;lon;timestamp;temperature;humidity
1259;DHT22;619;51.472;6.628;2023-04-12T00:01:17;16.60;59.90
1259;DHT22;619;51.472;6.628;2023-04-12T00:03:45;16.60;60.70
1259;DHT22;619;51.472;6.628;2023-04-12T00:06:19;16.50;61.20
1259;DHT22;619;51.472;6.628;2023-04-12T00:08:50;16.40;61.70
1259;DHT22;619;51.472;6.628;2023-04-12T00:11:18;16.40;62.30
1259;DHT22;619;51.472;6.628;2023-04-12T00:13:43;16.30;62.70
1259;DHT22;619;51.472;6.628;2023-04-12T00:16:12;16.30;63.00
1259;DHT22;619;51.472;6.628;2023-04-12T00:18:40;16.20;63.40
1259;DHT22;619;51.472;6.628;2023-04-12T00:21:07;16.20;63.70
1259;DHT22;619;51.472;6.628;2023-04-12T00:23:34;16.10;64.00
1259;DHT22;619;51.472;6.628;2023-04-12T00:26:02;16.10;64.50
1259;DHT22;619;51.472;6.628;2023-04-12T00:28:30;16.00;64.60
1259;DHT22;619;51.472;6.628;2023-04-12T00:30:59;16.00;65.00
1259;DHT22;619;51.472;6.628;2023-04-12T00:33:26;15.90;65.30
1259;DHT22;619;51.472;6.628;2023-04-12T00:35:55;15.90;65.60
1259;DHT22;619;51.472;6.628;2023-04-12T00:38:20;15.90;65.90
1259;DHT22;619;51.472;6.628;2023-04-12T00:40:46;15.90;66.20
1259;DHT22;619;51.472;6.628;2023-04-12T00:43:16;15.90;66.60
1259;DHT22;619;51.472;6.628;2023-04-12T00:45:45;15.80;66.70
1259;DHT22;619;51.472;6.628;2023-04-12T00:48:14;15.80;66.90
1259;DHT22;619;51.472;6.628;2023-04-12T00:50:43;15.80;67.30
1259;DHT22;619;51.472;6.628;2023-04-12T00:53:14;15.80;68.20
1259;DHT22;619;51.472;6.628;2023-04-12T00:55:45;15.80;67.50
1259;DHT22;619;51.472;6.628;2023-04-12T00:58:13;15.70;67.60
1259;DHT22;619;51.472;6.628;2023-04-12T01:00:39;15.70;67.70
1259;DHT22;619;51.472;6.628;2023-04-12T01:03:07;15.70;68.00
1259;DHT22;619;51.472;6.628;2023-04-12T01:05:39;15.70;68.30
1259;DHT22;619;51.472;6.628;2023-04-12T01:11:04;15.70;68.60
1259;DHT22;619;51.472;6.628;2023-04-12T01:13:49;15.60;68.80
1259;DHT22;619;51.472;6.628;2023-04-12T01:18:50;15.60;69.40
1259;DHT22;619;51.472;6.628;2023-04-12T01:24:34;15.50;70.00
1259;DHT22;619;51.472;6.628;2023-04-12T01:29:40;15.50;70.70
1259;DHT22;619;51.472;6.628;2023-04-12T01:32:09;15.50;71.10
1259;DHT22;619;51.472;6.628;2023-04-12T01:34:37;15.40;71.20
1259;DHT22;619;51.472;6.628;2023-04-12T01:37:04;15.40;71.60
1259;DHT22;619;51.472;6.628;2023-04-12T01:39:35;15.30;71.70
1259;DHT22;619;51.472;6.628;2023-04-12T01:42:03;15.30;72.10
1259;DHT22;619;51.472;6.628;2023-04-12T01:44:33;15.20;72.20
1259;DHT22;619;51.472;6.628;2023-04-12T01:46:59;15.20;72.40
1259;DHT22;619;51.472;6.628;2023-04-12T01:49:29;15.20;72.70
1259;DHT22;619;51.472;6.628;2023-04-12T01:52:08;15.10;72.70
1259;DHT22;619;51.472;6.628;2023-04-12T01:54:38;15.00;72.90
1259;DHT22;619;51.472;6.628;2023-04-12T01:57:06;15.00;73.10
1259;DHT22;619;51.472;6.628;2023-04-12T01:59:39;15.00;73.40
1259;DHT22;619;51.472;6.628;2023-04-12T02:02:05;14.90;73.60
1259;DHT22;619;51.472;6.628;2023-04-12T02:04:33;14.90;73.90
1259;DHT22;619;51.472;6.628;2023-04-12T02:07:00;14.90;74.20
1259;DHT22;619;51.472;6.628;2023-04-12T02:09:28;14.80;74.20
1259;DHT22;619;51.472;6.628;2023-04-12T02:11:57;14.80;74.50
1259;DHT22;619;51.472;6.628;2023-04-12T02:14:25;14.80;74.80
1259;DHT22;619;51.472;6.628;2023-04-12T02:16:51;14.80;75.00
1259;DHT22;619;51.472;6.628;2023-04-12T02:19:19;14.70;75.10
1259;DHT22;619;51.472;6.628;2023-04-12T02:21:47;14.70;75.30
1259;DHT22;619;51.472;6.628;2023-04-12T02:24:16;14.70;75.40
1259;DHT22;619;51.472;6.628;2023-04-12T02:26:44;14.70;75.60
1259;DHT22;619;51.472;6.628;2023-04-12T02:29:11;14.60;75.60
1259;DHT22;619;51.472;6.628;2023-04-12T02:31:38;14.60;75.70
1259;DHT22;619;51.472;6.628;2023-04-12T02:34:09;14.60;75.80
1259;DHT22;619;51.472;6.628;2023-04-12T02:36:37;14.60;75.90
1259;DHT22;619;51.472;6.628;2023-04-12T02:39:03;14.50;75.90
1259;DHT22;619;51.472;6.628;2023-04-12T02:41:28;14.50;76.10
1259;DHT22;619;51.472;6.628;2023-04-12T02:43:54;14.50;76.20
1259;DHT22;619;51.472;6.628;2023-04-12T02:46:24;14.50;76.40
1259;DHT22;619;51.472;6.628;2023-04-12T02:48:52;14.40;76.30
1259;DHT22;619;51.472;6.628;2023-04-12T02:51:18;14.40;76.40
1259;DHT22;619;51.472;6.628;2023-04-12T02:53:46;14.40;77.20
1259;DHT22;619;51.472;6.628;2023-04-12T02:56:16;14.40;76.30
1259;DHT22;619;51.472;6.628;2023-04-12T02:58:43;14.40;76.30
1259;DHT22;619;51.472;6.628;2023-04-12T03:01:09;14.40;76.30
1259;DHT22;619;51.472;6.628;2023-04-12T03:03:39;14.40;76.30
1259;DHT22;619;51.472;6.628;2023-04-12T03:06:07;14.30;76.10
1259;DHT22;619;51.472;6.628;2023-04-12T03:08:38;14.30;76.00
1259;DHT22;619;51.472;6.628;2023-04-12T03:11:06;14.30;76.00
1259;DHT22;619;51.472;6.628;2023-04-12T03:13:33;14.30;76.00
1259;DHT22;619;51.472;6.628;2023-04-12T03:16:19;14.20;75.90
1259;DHT22;619;51.472;6.628;2023-04-12T03:18:47;14.30;75.90
1259;DHT22;619;51.472;6.628;2023-04-12T03:21:12;14.20;75.90
1259;DHT22;619;51.472;6.628;2023-04-12T03:23:40;14.20;76.60
1259;DHT22;619;51.472;6.628;2023-04-12T03:26:06;14.20;76.00
1259;DHT22;619;51.472;6.628;2023-04-12T03:28:34;14.20;76.00
1259;DHT22;619;51.472;6.628;2023-04-12T03:30:59;14.30;76.30
1259;DHT22;619;51.472;6.628;2023-04-12T03:33:26;14.30;76.30
1259;DHT22;619;51.472;6.628;2023-04-12T03:35:53;14.30;76.50
1259;DHT22;619;51.472;6.628;2023-04-12T03:38:19;14.30;76.50
1259;DHT22;619;51.472;6.628;2023-04-12T03:40:49;14.40;76.60
1259;DHT22;619;51.472;6.628;2023-04-12T03:43:17;14.40;76.60
1259;DHT22;619;51.472;6.628;2023-04-12T03:45:45;14.40;76.60
1259;DHT22;619;51.472;6.628;2023-04-12T03:48:13;14.40;76.50
1259;DHT22;619;51.472;6.628;2023-04-12T03:50:41;14.40;76.70
1259;DHT22;619;51.472;6.628;2023-04-12T03:53:10;14.40;76.60
1259;DHT22;619;51.472;6.628;2023-04-12T03:55:38;14.40;76.70
1259;DHT22;619;51.472;6.628;2023-04-12T03:58:05;14.40;76.70
1259;DHT22;619;51.472;6.628;2023-04-12T04:00:33;14.40;76.60
1259;DHT22;619;51.472;6.628;2023-04-12T04:02:59;14.40;76.60
1259;DHT22;619;51.472;6.628;2023-04-12T04:05:28;14.40;76.60
1259;DHT22;619;51.472;6.628;2023-04-12T04:07:59;14.50;76.70
1259;DHT22;619;51.472;6.628;2023-04-12T04:10:29;14.50;76.70
1259;DHT22;619;51.472;6.628;2023-04-12T04:12:55;14.50;76.70
1259;DHT22;619;51.472;6.628;2023-04-12T04:15:20;14.50;76.70
1259;DHT22;619;51.472;6.628;2023-04-12T04:17:48;14.50;76.60
1259;DHT22;619;51.472;6.628;2023-04-12T04:20:14;14.50;76.70
1259;DHT22;619;51.472;6.628;2023-04-12T04:22:42;14.50;76.50
1259;DHT22;619;51.472;6.628;2023-04-12T04:25:15;14.40;76.50
1259;DHT22;619;51.472;6.628;2023-04-12T04:27:43;14.50;76.80
1259;DHT22;619;51.472;6.628;2023-04-12T04:30:11;14.40;76.90
1259;DHT22;619;51.472;6.628;2023-04-12T04:32:41;14.30;76.90
1259;DHT22;619;51.472;6.628;2023-04-12T04:35:10;14.30;77.10
1259;DHT22;619;51.472;6.628;2023-04-12T04:37:41;14.30;77.20
1259;DHT22;619;51.472;6.628;2023-04-12T04:40:07;14.30;77.10
1259;DHT22;619;51.472;6.628;2023-04-12T04:42:35;14.20;77.10
1259;DHT22;619;51.472;6.628;2023-04-12T04:45:03;14.20;77.20
1259;DHT22;619;51.472;6.628;2023-04-12T04:50:07;14.20;77.50
1259;DHT22;619;51.472;6.628;2023-04-12T04:52:38;14.20;77.90
1259;DHT22;619;51.472;6.628;2023-04-12T04:55:05;14.20;78.10
1259;DHT22;619;51.472;6.628;2023-04-12T04:57:37;14.10;78.20
1259;DHT22;619;51.472;6.628;2023-04-12T05:00:02;14.10;78.50
1259;DHT22;619;51.472;6.628;2023-04-12T05:02:36;14.10;78.60
1259;DHT22;619;51.472;6.628;2023-04-12T05:05:05;14.10;78.90
1259;DHT22;619;51.472;6.628;2023-04-12T05:07:33;14.00;78.90
1259;DHT22;619;51.472;6.628;2023-04-12T05:10:04;14.00;79.10
1259;DHT22;619;51.472;6.628;2023-04-12T05:12:30;14.00;79.40
1259;DHT22;619;51.472;6.628;2023-04-12T05:14:56;14.00;79.60
1259;DHT22;619;51.472;6.628;2023-04-12T05:17:24;13.90;79.70
1259;DHT22;619;51.472;6.628;2023-04-12T05:19:50;13.90;80.00
1259;DHT22;619;51.472;6.628;2023-04-12T05:22:15;13.90;80.90
1259;DHT22;619;51.472;6.628;2023-04-12T05:24:45;13.90;80.40
1259;DHT22;619;51.472;6.628;2023-04-12T05:27:10;13.90;80.60
1259;DHT22;619;51.472;6.628;2023-04-12T05:29:46;13.90;80.80
1259;DHT22;619;51.472;6.628;2023-04-12T05:32:14;13.90;80.80
1259;DHT22;619;51.472;6.628;2023-04-12T05:34:44;13.90;80.90
1259;DHT22;619;51.472;6.628;2023-04-12T05:37:10;13.90;81.00
1259;DHT22;619;51.472;6.628;2023-04-12T05:39:38;13.80;81.20
1259;DHT22;619;51.472;6.628;2023-04-12T05:42:06;13.80;81.50
1259;DHT22;619;51.472;6.628;2023-04-12T05:44:34;13.80;81.70
1259;DHT22;619;51.472;6.628;2023-04-12T05:47:03;13.80;81.80
1259;DHT22;619;51.472;6.628;2023-04-12T05:49:34;13.80;81.90
1259;DHT22;619;51.472;6.628;2023-04-12T05:52:00;13.80;81.90
1259;DHT22;619;51.472;6.628;2023-04-12T05:54:26;13.80;82.00
1259;DHT22;619;51.472;6.628;2023-04-12T05:56:52;13.80;82.20
1259;DHT22;619;51.472;6.628;2023-04-12T05:59:24;13.80;82.20
1259;DHT22;619;51.472;6.628;2023-04-12T06:01:49;13.80;82.20
1259;DHT22;619;51.472;6.628;2023-04-12T06:04:19;13.90;82.20
1259;DHT22;619;51.472;6.628;2023-04-12T06:06:45;13.90;82.10
1259;DHT22;619;51.472;6.628;2023-04-12T06:09:14;14.00;82.10
1259;DHT22;619;51.472;6.628;2023-04-12T06:11:41;14.00;82.00
1259;DHT22;619;51.472;6.628;2023-04-12T06:14:09;14.00;82.10
1259;DHT22;619;51.472;6.628;2023-04-12T06:16:37;14.00;82.10
1259;DHT22;619;51.472;6.628;2023-04-12T06:19:03;14.10;82.20
1259;DHT22;619;51.472;6.628;2023-04-12T06:21:30;14.10;82.20
1259;DHT22;619;51.472;6.628;2023-04-12T06:23:59;14.10;82.10
1259;DHT22;619;51.472;6.628;2023-04-12T06:26:29;14.10;82.10
1259;DHT22;619;51.472;6.628;2023-04-12T06:28:59;14.20;82.20
1259;DHT22;619;51.472;6.628;2023-04-12T06:31:27;14.20;82.10
1259;DHT22;619;51.472;6.628;2023-04-12T06:34:00;14.30;82.10
1259;DHT22;619;51.472;6.628;2023-04-12T06:36:25;14.30;81.80
1259;DHT22;619;51.472;6.628;2023-04-12T06:38:53;14.30;81.70
1259;DHT22;619;51.472;6.628;2023-04-12T06:41:22;14.40;81.80
1259;DHT22;619;51.472;6.628;2023-04-12T06:43:47;14.40;81.80
1259;DHT22;619;51.472;6.628;2023-04-12T06:46:18;14.30;81.70
1259;DHT22;619;51.472;6.628;2023-04-12T06:48:52;14.40;81.80
1259;DHT22;619;51.472;6.628;2023-04-12T06:51:19;14.40;81.90
1259;DHT22;619;51.472;6.628;2023-04-12T06:53:48;14.40;81.90
1259;DHT22;619;51.472;6.628;2023-04-12T06:56:13;14.40;82.00
1259;DHT22;619;51.472;6.628;2023-04-12T06:58:41;14.50;82.20
1259;DHT22;619;51.472;6.628;2023-04-12T07:01:08;14.50;82.10
1259;DHT22;619;51.472;6.628;2023-04-12T07:03:40;14.50;82.20
1259;DHT22;619;51.472;6.628;2023-04-12T07:06:05;14.60;82.20
1259;DHT22;619;51.472;6.628;2023-04-12T07:08:35;14.60;82.20
1259;DHT22;619;51.472;6.628;2023-04-12T07:11:03;14.70;82.20
1259;DHT22;619;51.472;6.628;2023-04-12T07:13:29;14.70;82.10
1259;DHT22;619;51.472;6.628;2023-04-12T07:15:55;14.80;82.20
1259;DHT22;619;51.472;6.628;2023-04-12T07:18:22;14.90;82.30
1259;DHT22;619;51.472;6.628;2023-04-12T07:20:48;15.00;82.00
1259;DHT22;619;51.472;6.628;2023-04-12T07:23:15;15.10;81.90
1259;DHT22;619;51.472;6.628;2023-04-12T07:25:41;15.10;81.80
1259;DHT22;619;51.472;6.628;2023-04-12T07:28:06;15.20;82.30
1259;DHT22;619;51.472;6.628;2023-04-12T07:30:32;15.30;81.70
1259;DHT22;619;51.472;6.628;2023-04-12T07:32:58;15.30;81.50
1259;DHT22;619;51.472;6.628;2023-04-12T07:35:28;15.50;81.50
1259;DHT22;619;51.472;6.628;2023-04-12T07:37:56;15.40;81.10
1259;DHT22;619;51.472;6.628;2023-04-12T07:40:24;15.50;80.90
1259;DHT22;619;51.472;6.628;2023-04-12T07:42:52;15.50;80.70
1259;DHT22;619;51.472;6.628;2023-04-12T07:45:21;15.50;80.80
1259;DHT22;619;51.472;6.628;2023-04-12T07:47:49;15.50;80.60
1259;DHT22;619;51.472;6.628;2023-04-12T07:50:15;15.50;80.60
1259;DHT22;619;51.472;6.628;2023-04-12T07:52:41;15.50;80.60
1259;DHT22;619;51.472;6.628;2023-04-12T07:55:08;15.50;80.70
1259;DHT22;619;51.472;6.628;2023-04-12T07:57:34;15.50;80.50
1259;DHT22;619;51.472;6.628;2023-04-12T08:00:02;15.50;80.40
1259;DHT22;619;51.472;6.628;2023-04-12T08:02:31;15.50;80.70
1259;DHT22;619;51.472;6.628;2023-04-12T08:04:59;15.50;81.10
1259;DHT22;619;51.472;6.628;2023-04-12T08:07:29;15.50;81.20
1259;DHT22;619;51.472;6.628;2023-04-12T08:09:55;15.60;81.50
1259;DHT22;619;51.472;6.628;2023-04-12T08:12:25;15.60;81.40
1259;DHT22;619;51.472;6.628;2023-04-12T08:14:53;15.60;81.60
1259;DHT22;619;51.472;6.628;2023-04-12T08:17:19;15.70;81.90
1259;DHT22;619;51.472;6.628;2023-04-12T08:19:44;15.80;81.90
1259;DHT22;619;51.472;6.628;2023-04-12T08:22:10;15.80;81.60
1259;DHT22;619;51.472;6.628;2023-04-12T08:24:38;15.90;82.10
1259;DHT22;619;51.472;6.628;2023-04-12T08:27:04;16.00;82.10
1259;DHT22;619;51.472;6.628;2023-04-12T08:29:32;16.10;81.80
1259;DHT22;619;51.472;6.628;2023-04-12T08:32:00;16.10;81.40
1259;DHT22;619;51.472;6.628;2023-04-12T08:34:29;16.10;81.10
1259;DHT22;619;51.472;6.628;2023-04-12T08:36:57;16.20;81.20
1259;DHT22;619;51.472;6.628;2023-04-12T08:39:27;16.20;81.10
1259;DHT22;619;51.472;6.628;2023-04-12T08:41:56;16.30;81.30
1259;DHT22;619;51.472;6.628;2023-04-12T08:44:33;16.40;81.30
1259;DHT22;619;51.472;6.628;2023-04-12T08:47:05;16.40;81.10
1259;DHT22;619;51.472;6.628;2023-04-12T08:49:34;16.40;80.60
1259;DHT22;619;51.472;6.628;2023-04-12T08:52:06;16.40;80.80
1259;DHT22;619;51.472;6.628;2023-04-12T08:54:35;16.50;80.70
1259;DHT22;619;51.472;6.628;2023-04-12T08:57:07;16.50;80.30
1259;DHT22;619;51.472;6.628;2023-04-12T08:59:37;16.50;80.30
1259;DHT22;619;51.472;6.628;2023-04-12T09:02:05;16.50;80.30
1259;DHT22;619;51.472;6.628;2023-04-12T09:04:33;16.40;80.30
1259;DHT22;619;51.472;6.628;2023-04-12T09:06:59;16.40;80.70
1259;DHT22;619;51.472;6.628;2023-04-12T09:09:46;16.50;81.30
1259;DHT22;619;51.472;6.628;2023-04-12T09:12:13;16.50;81.40
1259;DHT22;619;51.472;6.628;2023-04-12T09:14:40;16.50;81.00
1259;DHT22;619;51.472;6.628;2023-04-12T09:17:27;16.60;80.70
1259;DHT22;619;51.472;6.628;2023-04-12T09:19:55;16.60;80.60
1259;DHT22;619;51.472;6.628;2023-04-12T09:22:35;16.60;80.70
1259;DHT22;619;51.472;6.628;2023-04-12T09:25:02;16.60;80.90
1259;DHT22;619;51.472;6.628;2023-04-12T09:27:27;16.60;81.20
1259;DHT22;619;51.472;6.628;2023-04-12T09:30:08;16.70;81.90
1259;DHT22;619;51.472;6.628;2023-04-12T09:32:38;16.90;82.30
1259;DHT22;619;51.472;6.628;2023-04-12T09:35:07;17.10;82.60
1259;DHT22;619;51.472;6.628;2023-04-12T09:37:32;17.20;82.40
1259;DHT22;619;51.472;6.628;2023-04-12T09:40:06;17.40;81.60
1259;DHT22;619;51.472;6.628;2023-04-12T09:42:35;17.60;81.20
1259;DHT22;619;51.472;6.628;2023-04-12T09:45:23;17.70;80.40
1259;DHT22;619;51.472;6.628;2023-04-12T09:47:55;17.90;80.00
1259;DHT22;619;51.472;6.628;2023-04-12T09:50:27;18.10;79.50
1259;DHT22;619;51.472;6.628;2023-04-12T09:52:59;18.20;79.30
1259;DHT22;619;51.472;6.628;2023-04-12T09:55:30;18.40;78.90
1259;DHT22;619;51.472;6.628;2023-04-12T09:58:02;18.60;78.50
1259;DHT22;619;51.472;6.628;2023-04-12T10:00:32;18.70;77.60
1259;DHT22;619;51.472;6.628;2023-04-12T10:03:01;18.80;76.70
1259;DHT22;619;51.472;6.628;2023-04-12T10:05:26;18.90;76.00
1259;DHT22;619;51.472;6.628;2023-04-12T10:07:52;18.90;75.60
1259;DHT22;619;51.472;6.628;2023-04-12T10:10:19;18.80;74.90
1259;DHT22;619;51.472;6.628;2023-04-12T10:12:47;18.80;74.70
1259;DHT22;619;51.472;6.628;2023-04-12T10:15:15;18.60;74.10
1259;DHT22;619;51.472;6.628;2023-04-12T10:17:51;18.30;70.70
1259;DHT22;619;51.472;6.628;2023-04-12T10:20:22;17.90;70.40
1259;DHT22;619;51.472;6.628;2023-04-12T10:22:51;17.70;70.40
1259;DHT22;619;51.472;6.628;2023-04-12T10:27:44;17.60;72.60
1259;DHT22;619;51.472;6.628;2023-04-12T10:30:24;17.60;73.60
1259;DHT22;619;51.472;6.628;2023-04-12T10:38:15;18.10;72.20
1259;DHT22;619;51.472;6.628;2023-04-12T10:41:20;18.20;70.90
1259;DHT22;619;51.472;6.628;2023-04-12T10:43:52;18.30;69.70
1259;DHT22;619;51.472;6.628;2023-04-12T10:49:11;18.20;69.90
1259;DHT22;619;51.472;6.628;2023-04-12T10:51:40;18.20;69.30
1259;DHT22;619;51.472;6.628;2023-04-12T10:56:51;18.10;68.60
1259;DHT22;619;51.472;6.628;2023-04-12T10:59:22;18.00;68.50
1259;DHT22;619;51.472;6.628;2023-04-12T11:02:12;18.00;69.40
1259;DHT22;619;51.472;6.628;2023-04-12T11:05:04;18.00;69.60
1259;DHT22;619;51.472;6.628;2023-04-12T11:07:43;18.20;69.20
1259;DHT22;619;51.472;6.628;2023-04-12T11:10:14;18.20;67.60
1259;DHT22;619;51.472;6.628;2023-04-12T11:12:47;18.40;68.60
1259;DHT22;619;51.472;6.628;2023-04-12T11:15:12;18.60;68.60
1259;DHT22;619;51.472;6.628;2023-04-12T11:17:41;18.90;68.40
1259;DHT22;619;51.472;6.628;2023-04-12T11:20:10;19.20;67.20
1259;DHT22;619;51.472;6.628;2023-04-12T11:22:37;19.30;66.80
1259;DHT22;619;51.472;6.628;2023-04-12T11:25:03;19.50;66.70
1259;DHT22;619;51.472;6.628;2023-04-12T11:27:34;19.70;66.80
1259;DHT22;619;51.472;6.628;2023-04-12T11:30:02;19.80;64.80
1259;DHT22;619;51.472;6.628;2023-04-12T11:32:29;19.90;65.10
1259;DHT22;619;51.472;6.628;2023-04-12T11:34:58;19.90;65.10
1259;DHT22;619;51.472;6.628;2023-04-12T11:37:27;20.00;65.40
1259;DHT22;619;51.472;6.628;2023-04-12T11:39:56;20.00;63.70
1259;DHT22;619;51.472;6.628;2023-04-12T11:42:26;20.00;63.80
1259;DHT22;619;51.472;6.628;2023-04-12T11:44:55;20.10;63.90
1259;DHT22;619;51.472;6.628;2023-04-12T11:47:22;20.20;64.80
1259;DHT22;619;51.472;6.628;2023-04-12T11:49:56;20.40;64.70
1259;DHT22;619;51.472;6.628;2023-04-12T11:52:28;20.50;63.90
1259;DHT22;619;51.472;6.628;2023-04-12T11:54:59;20.60;63.40
1259;DHT22;619;51.472;6.628;2023-04-12T11:57:27;20.70;63.00
1259;DHT22;619;51.472;6.628;2023-04-12T11:59:56;20.80;61.30
1259;DHT22;619;51.472;6.628;2023-04-12T12:02:24;20.90;60.50
1259;DHT22;619;51.472;6.628;2023-04-12T12:04:50;21.00;60.80
1259;DHT22;619;51.472;6.628;2023-04-12T12:07:17;21.30;60.30
1259;DHT22;619;51.472;6.628;2023-04-12T12:09:46;21.50;59.80
1259;DHT22;619;51.472;6.628;2023-04-12T12:12:17;21.70;58.60
1259;DHT22;619;51.472;6.628;2023-04-12T12:14:45;21.90;58.40
1259;DHT22;619;51.472;6.628;2023-04-12T12:17:13;22.10;58.10
1259;DHT22;619;51.472;6.628;2023-04-12T12:19:44;22.30;57.70
1259;DHT22;619;51.472;6.628;2023-04-12T12:24:46;22.50;57.00
1259;DHT22;619;51.472;6.628;2023-04-12T12:27:17;22.60;57.20
1259;DHT22;619;51.472;6.628;2023-04-12T12:29:43;22.70;58.10
1259;DHT22;619;51.472;6.628;2023-04-12T12:32:13;22.90;58.30
1259;DHT22;619;51.472;6.628;2023-04-12T12:34:40;22.90;56.70
1259;DHT22;619;51.472;6.628;2023-04-12T12:37:14;23.00;55.90
1259;DHT22;619;51.472;6.628;2023-04-12T12:40:08;22.90;55.80
1259;DHT22;619;51.472;6.628;2023-04-12T12:42:46;22.70;55.80
1259;DHT22;619;51.472;6.628;2023-04-12T12:45:13;22.40;56.10
1259;DHT22;619;51.472;6.628;2023-04-12T12:48:00;22.20;56.40
1259;DHT22;619;51.472;6.628;2023-04-12T12:50:33;22.00;56.80
1259;DHT22;619;51.472;6.628;2023-04-12T12:52:59;21.90;56.70
1259;DHT22;619;51.472;6.628;2023-04-12T12:55:26;21.80;56.90
1259;DHT22;619;51.472;6.628;2023-04-12T12:57:53;21.70;57.50
1259;DHT22;619;51.472;6.628;2023-04-12T13:00:21;21.70;57.70
1259;DHT22;619;51.472;6.628;2023-04-12T13:02:47;21.70;58.20
1259;DHT22;619;51.472;6.628;2023-04-12T13:05:14;21.90;58.00
1259;DHT22;619;51.472;6.628;2023-04-12T13:07:41;22.10;57.70
1259;DHT22;619;51.472;6.628;2023-04-12T13:10:08;22.30;57.40
1259;DHT22;619;51.472;6.628;2023-04-12T13:12:37;22.40;57.20
1259;DHT22;619;51.472;6.628;2023-04-12T13:15:05;22.40;56.60
1259;DHT22;619;51.472;6.628;2023-04-12T13:17:31;22.40;56.70
1259;DHT22;619;51.472;6.628;2023-04-12T13:19:57;22.20;56.20
1259;DHT22;619;51.472;6.628;2023-04-12T13:22:25;21.60;54.60
1259;DHT22;619;51.472;6.628;2023-04-12T13:27:20;20.40;55.40
1259;DHT22;619;51.472;6.628;2023-04-12T13:29:48;18.70;60.50
1259;DHT22;619;51.472;6.628;2023-04-12T13:32:14;18.10;62.50
1259;DHT22;619;51.472;6.628;2023-04-12T13:34:42;17.40;65.10
1259;DHT22;619;51.472;6.628;2023-04-12T13:37:10;16.80;66.90
1259;DHT22;619;51.472;6.628;2023-04-12T13:39:38;16.50;68.50
1259;DHT22;619;51.472;6.628;2023-04-12T13:42:05;16.20;70.00
1259;DHT22;619;51.472;6.628;2023-04-12T13:44:35;15.90;71.20
1259;DHT22;619;51.472;6.628;2023-04-12T13:47:04;15.70;72.30
1259;DHT22;619;51.472;6.628;2023-04-12T13:49:30;15.60;73.40
1259;DHT22;619;51.472;6.628;2023-04-12T13:52:00;15.50;73.60
1259;DHT22;619;51.472;6.628;2023-04-12T13:54:30;15.50;74.00
1259;DHT22;619;51.472;6.628;2023-04-12T13:56:58;15.50;74.50
1259;DHT22;619;51.472;6.628;2023-04-12T13:59:27;15.50;74.40
1259;DHT22;619;51.472;6.628;2023-04-12T14:01:55;15.50;74.50
1259;DHT22;619;51.472;6.628;2023-04-12T14:04:26;15.60;74.70
1259;DHT22;619;51.472;6.628;2023-04-12T14:06:52;15.70;74.60
1259;DHT22;619;51.472;6.628;2023-04-12T14:09:32;15.70;74.50
1259;DHT22;619;51.472;6.628;2023-04-12T14:12:00;15.80;74.70
1259;DHT22;619;51.472;6.628;2023-04-12T14:14:28;15.80;74.50
1259;DHT22;619;51.472;6.628;2023-04-12T14:16:56;15.90;74.60
1259;DHT22;619;51.472;6.628;2023-04-12T14:19:26;15.90;74.70
1259;DHT22;619;51.472;6.628;2023-04-12T14:21:54;15.90;74.50
1259;DHT22;619;51.472;6.628;2023-04-12T14:24:23;16.00;74.90
1259;DHT22;619;51.472;6.628;2023-04-12T14:26:54;15.90;74.30
1259;DHT22;619;51.472;6.628;2023-04-12T14:29:23;15.90;73.90
1259;DHT22;619;51.472;6.628;2023-04-12T14:31:49;15.90;74.00
1259;DHT22;619;51.472;6.628;2023-04-12T14:34:15;16.00;74.30
1259;DHT22;619;51.472;6.628;2023-04-12T14:36:40;16.00;73.20
1259;DHT22;619;51.472;6.628;2023-04-12T14:39:06;16.10;74.40
1259;DHT22;619;51.472;6.628;2023-04-12T14:41:34;16.10;73.70
1259;DHT22;619;51.472;6.628;2023-04-12T14:44:01;16.10;73.80
1259;DHT22;619;51.472;6.628;2023-04-12T14:46:28;16.00;73.10
1259;DHT22;619;51.472;6.628;2023-04-12T14:48:55;16.00;73.00
1259;DHT22;619;51.472;6.628;2023-04-12T14:51:23;16.00;73.40
1259;DHT22;619;51.472;6.628;2023-04-12T14:53:49;16.00;73.30
1259;DHT22;619;51.472;6.628;2023-04-12T14:56:22;16.00;73.40
1259;DHT22;619;51.472;6.628;2023-04-12T14:58:50;16.00;73.10
1259;DHT22;619;51.472;6.628;2023-04-12T15:01:19;16.00;72.90
1259;DHT22;619;51.472;6.628;2023-04-12T15:03:44;16.00;73.20
1259;DHT22;619;51.472;6.628;2023-04-12T15:06:11;15.90;73.30
1259;DHT22;619;51.472;6.628;2023-04-12T15:08:38;15.90;74.00
1259;DHT22;619;51.472;6.628;2023-04-12T15:11:10;15.80;72.20
1259;DHT22;619;51.472;6.628;2023-04-12T15:13:37;15.50;69.80
1259;DHT22;619;51.472;6.628;2023-04-12T15:16:09;15.50;69.70
1259;DHT22;619;51.472;6.628;2023-04-12T15:18:37;15.50;69.90
1259;DHT22;619;51.472;6.628;2023-04-12T15:21:07;15.60;71.10
1259;DHT22;619;51.472;6.628;2023-04-12T15:23:34;15.90;71.00
1259;DHT22;619;51.472;6.628;2023-04-12T15:26:02;16.20;67.50
1259;DHT22;619;51.472;6.628;2023-04-12T15:28:31;16.40;67.70
1259;DHT22;619;51.472;6.628;2023-04-12T15:30:57;16.70;68.50
1259;DHT22;619;51.472;6.628;2023-04-12T15:33:23;17.00;66.00
1259;DHT22;619;51.472;6.628;2023-04-12T15:35:52;17.20;66.10
1259;DHT22;619;51.472;6.628;2023-04-12T15:38:23;17.50;64.10
1259;DHT22;619;51.472;6.628;2023-04-12T15:40:57;17.60;62.60
1259;DHT22;619;51.472;6.628;2023-04-12T15:43:23;17.90;63.50
1259;DHT22;619;51.472;6.628;2023-04-12T15:45:52;18.20;64.10
1259;DHT22;619;51.472;6.628;2023-04-12T15:48:20;18.50;63.90
1259;DHT22;619;51.472;6.628;2023-04-12T15:50:49;18.80;62.40
1259;DHT22;619;51.472;6.628;2023-04-12T15:53:19;18.90;60.20
1259;DHT22;619;51.472;6.628;2023-04-12T15:55:45;18.90;60.00
1259;DHT22;619;51.472;6.628;2023-04-12T15:58:12;18.90;59.70
1259;DHT22;619;51.472;6.628;2023-04-12T16:00:40;18.80;59.70
1259;DHT22;619;51.472;6.628;2023-04-12T16:03:11;18.70;60.10
1259;DHT22;619;51.472;6.628;2023-04-12T16:05:41;18.50;60.30
1259;DHT22;619;51.472;6.628;2023-04-12T16:08:10;18.40;60.50
1259;DHT22;619;51.472;6.628;2023-04-12T16:10:35;17.90;59.70
1259;DHT22;619;51.472;6.628;2023-04-12T16:13:03;17.60;61.10
1259;DHT22;619;51.472;6.628;2023-04-12T16:15:33;17.30;62.10
1259;DHT22;619;51.472;6.628;2023-04-12T16:17:59;16.90;63.80
1259;DHT22;619;51.472;6.628;2023-04-12T16:20:24;16.50;64.00
1259;DHT22;619;51.472;6.628;2023-04-12T16:22:51;16.20;65.30
1259;DHT22;619;51.472;6.628;2023-04-12T16:25:21;15.80;66.30
1259;DHT22;619;51.472;6.628;2023-04-12T16:27:53;15.40;67.40
1259;DHT22;619;51.472;6.628;2023-04-12T16:30:18;15.10;67.90
1259;DHT22;619;51.472;6.628;2023-04-12T16:32:45;15.00;69.30
1259;DHT22;619;51.472;6.628;2023-04-12T16:35:19;14.90;69.50
1259;DHT22;619;51.472;6.628;2023-04-12T16:37:49;14.90;70.00
1259;DHT22;619;51.472;6.628;2023-04-12T16:40:17;14.90;70.50
1259;DHT22;619;51.472;6.628;2023-04-12T16:42:43;15.10;71.50
1259;DHT22;619;51.472;6.628;2023-04-12T16:45:11;15.30;74.10
1259;DHT22;619;51.472;6.628;2023-04-12T16:47:41;15.60;72.40
1259;DHT22;619;51.472;6.628;2023-04-12T16:50:09;15.90;71.10
1259;DHT22;619;51.472;6.628;2023-04-12T16:52:37;16.20;70.10
1259;DHT22;619;51.472;6.628;2023-04-12T16:55:04;16.50;72.50
1259;DHT22;619;51.472;6.628;2023-04-12T16:57:30;17.20;72.50
1259;DHT22;619;51.472;6.628;2023-04-12T16:59:57;18.10;69.30